createdAt,value
2022-10-17T00:02:34.778Z,15.2
2022-10-17T00:04:25.996Z,15.1
2022-10-17T00:06:54.201Z,15.2
2022-10-17T00:08:45.386Z,15.2
2022-10-17T00:10:36.575Z,14.9
2022-10-17T00:17:24.297Z,15
2022-10-17T00:23:34.869Z,15
2022-10-17T00:25:26.090Z,15
2022-10-17T00:27:54.319Z,15
2022-10-17T00:29:45.506Z,15.1
2022-10-17T00:31:36.687Z,14.9
2022-10-17T00:38:24.372Z,15.1
2022-10-17T00:44:26.800Z,14.9
2022-10-17T00:50:37.407Z,15
2022-10-17T00:57:25.096Z,14.9
2022-10-17T01:01:44.611Z,14.7
2022-10-17T01:03:35.716Z,14.7
2022-10-17T01:05:26.906Z,14.7
2022-10-17T01:11:37.545Z,14.9
2022-10-17T01:18:25.204Z,14.7
2022-10-17T01:22:44.636Z,14.8
2022-10-17T01:24:35.828Z,14.9
2022-10-17T01:26:27.007Z,14.8
2022-10-17T01:30:54.645Z,14.8
2022-10-17T01:32:45.824Z,14.8
2022-10-17T01:41:24.688Z,14.9
2022-10-17T01:43:15.897Z,14.8
2022-10-17T01:47:27.442Z,14.9
2022-10-17T01:53:37.738Z,14.5
2022-10-17T01:58:34.231Z,14.6
2022-10-17T02:00:25.422Z,14.9
2022-10-17T02:04:44.858Z,14.8
2022-10-17T02:08:27.223Z,14.7
2022-10-17T02:19:34.343Z,14.8
2022-10-17T02:21:25.544Z,15.2
2022-10-17T02:25:44.960Z,15.4
2022-10-17T02:27:36.155Z,15.2
2022-10-17T02:29:27.335Z,15.3
2022-10-17T02:40:34.447Z,15.2
2022-10-17T02:42:25.647Z,15.2
2022-10-17T02:46:36.873Z,15.2
2022-10-17T02:53:24.558Z,15
2022-10-17T03:01:26.475Z,15.1
2022-10-17T03:03:54.612Z,15.4
2022-10-17T03:05:45.796Z,15.3
2022-10-17T03:07:36.997Z,15.3
2022-10-17T03:14:24.674Z,15.8
2022-10-17T03:20:35.295Z,16.2
2022-10-17T03:22:26.906Z,16.3
2022-10-17T03:24:54.718Z,16.5
2022-10-17T03:28:37.172Z,16.6
2022-10-17T03:35:24.776Z,16.5
2022-10-17T03:39:44.208Z,17.1
2022-10-17T03:41:35.390Z,16.9
2022-10-17T03:43:26.579Z,16.7
2022-10-17T03:47:37.818Z,16.9
2022-10-17T03:52:34.321Z,16.8
2022-10-17T03:54:25.507Z,17
2022-10-17T04:00:44.319Z,17
2022-10-17T04:02:35.505Z,17
2022-10-17T04:04:26.690Z,17.1
2022-10-17T04:08:46.132Z,17
2022-10-17T04:10:37.309Z,17.3
2022-10-17T04:17:24.991Z,17.4
2022-10-17T04:21:44.430Z,17.1
2022-10-17T04:23:35.611Z,17.2
2022-10-17T04:25:26.790Z,17.3
2022-10-17T04:29:46.234Z,17.5
2022-10-17T04:31:37.423Z,17.5
2022-10-17T04:38:28.416Z,17.5
2022-10-17T04:42:44.532Z,17.5
2022-10-17T04:55:34.656Z,17.7
2022-10-17T04:57:25.827Z,17.8
2022-10-17T05:01:45.301Z,17.5
2022-10-17T05:03:36.450Z,17.7
2022-10-17T05:10:24.131Z,17.9
2022-10-17T05:18:25.954Z,17.9
2022-10-17T05:20:54.181Z,17.7
2022-10-17T05:31:24.231Z,17.9
2022-10-17T05:37:34.860Z,17.9
2022-10-17T05:39:26.041Z,18
2022-10-17T05:41:54.291Z,17.9
2022-10-17T05:47:19.667Z,18
2022-10-17T05:50:24.965Z,17.8
2022-10-17T05:54:44.422Z,17.8
2022-10-17T05:56:35.586Z,17.8
2022-10-17T06:04:37.410Z,18
2022-10-17T06:11:25.069Z,18
2022-10-17T06:15:44.509Z,18
2022-10-17T06:17:35.696Z,18
2022-10-17T06:19:26.878Z,18
2022-10-17T06:25:37.540Z,18.4
2022-10-17T06:34:24.570Z,18.7
2022-10-17T06:42:26.380Z,18.5
2022-10-17T06:44:54.617Z,18.7
2022-10-17T06:46:37.608Z,18.7
2022-10-17T06:47:16.634Z,18.7
2022-10-17T06:51:34.105Z,18.7
2022-10-17T06:53:25.300Z,18.8
2022-10-17T06:57:44.726Z,18.8
2022-10-17T06:59:35.908Z,18.8
2022-10-17T07:01:27.098Z,18.7
2022-10-17T07:05:46.548Z,19.2
2022-10-17T07:07:40.146Z,19.1
2022-10-17T07:12:34.205Z,19.2
2022-10-17T07:14:25.399Z,19.3
2022-10-17T07:18:44.825Z,19.4
2022-10-17T07:20:36.017Z,19.6
2022-10-17T07:22:27.205Z,19.7
2022-10-17T07:28:37.895Z,20.4
2022-10-17T07:31:44.481Z,21.2
2022-10-17T07:33:34.348Z,21.2
2022-10-17T07:35:25.500Z,21.3
2022-10-17T07:39:44.930Z,21.8
2022-10-17T07:41:36.121Z,22.5
2022-10-17T07:43:27.304Z,23.1
2022-10-17T07:46:24.426Z,24.3
2022-10-17T07:54:26.228Z,22.8
2022-10-17T07:56:54.472Z,22.4
2022-10-17T07:58:45.730Z,22.6
2022-10-17T08:00:37.056Z,21.5
2022-10-17T08:07:29.140Z,22.6
2022-10-17T08:13:35.162Z,24.4
2022-10-17T08:15:29.398Z,25.1
2022-10-17T08:17:54.595Z,26.6
2022-10-17T08:21:36.967Z,26.1
2022-10-17T08:28:24.685Z,25
2022-10-17T08:34:35.265Z,24.9
2022-10-17T08:36:26.448Z,24.8
2022-10-17T08:38:54.724Z,26.5
2022-10-17T08:42:37.071Z,26.6
2022-10-17T08:46:19.445Z,25.6
2022-10-17T08:47:25.459Z,24.8
2022-10-17T08:51:44.805Z,25.1
2022-10-17T08:53:35.989Z,24.5
2022-10-17T08:59:54.809Z,22.7
2022-10-17T09:01:46.002Z,22.9
2022-10-17T09:03:37.186Z,23
2022-10-17T09:10:24.862Z,23.4
2022-10-17T09:14:44.298Z,24.8
2022-10-17T09:16:35.488Z,26.2
2022-10-17T09:18:27.057Z,27.1
2022-10-17T09:24:37.297Z,24.8
2022-10-17T09:31:24.982Z,25.1
2022-10-17T09:35:44.420Z,25.5
2022-10-17T09:37:35.599Z,24.9
2022-10-17T09:39:26.778Z,24.6
2022-10-17T09:48:34.525Z,23.2
2022-10-17T09:50:25.704Z,22.7
2022-10-17T09:54:45.147Z,21.7
2022-10-17T09:56:36.329Z,21.6
2022-10-17T09:58:27.508Z,21.9
2022-10-17T10:09:36.810Z,22
2022-10-17T10:11:25.851Z,21.8
2022-10-17T10:17:36.438Z,21.2
2022-10-17T10:19:27.625Z,21.3
2022-10-17T10:24:29.620Z,21.6
2022-10-17T10:30:37.539Z,21.3
2022-10-17T10:32:26.117Z,21.3
2022-10-17T10:34:54.168Z,21
2022-10-17T10:36:45.359Z,21.2
2022-10-17T10:38:36.544Z,21.4
2022-10-17T10:45:46.360Z,22.1
2022-10-17T10:47:15.408Z,22.5
2022-10-17T10:49:35.466Z,22.5
2022-10-17T10:51:26.671Z,22.3
2022-10-17T10:57:37.289Z,22.9
2022-10-17T11:04:24.949Z,21.8
2022-10-17T11:08:44.388Z,21.6
2022-10-17T11:12:26.761Z,21.6
2022-10-17T11:18:37.378Z,21
2022-10-17T11:25:25.066Z,21.2
2022-10-17T11:33:35.061Z,21.7
2022-10-17T11:37:54.503Z,21.7
2022-10-17T11:48:16.363Z,21.6
2022-10-17T11:54:26.982Z,21.2
2022-10-17T12:00:40.547Z,21.8
2022-10-17T12:07:25.309Z,21.5
2022-10-17T12:11:44.717Z,21.4
2022-10-17T12:13:35.896Z,21.5
2022-10-17T12:15:27.114Z,21.4
2022-10-17T12:21:41.467Z,21.1
2022-10-17T12:26:34.456Z,20.9
2022-10-17T12:28:25.447Z,20.6
2022-10-17T12:33:00.464Z,20.9
2022-10-17T12:34:36.036Z,20.9
2022-10-17T12:36:27.193Z,21.1
2022-10-17T12:42:37.807Z,20.6
2022-10-17T12:53:36.746Z,20.5
2022-10-17T13:00:24.586Z,20.6
2022-10-17T13:06:35.060Z,20.7
2022-10-17T13:08:26.230Z,20.5
2022-10-17T13:10:54.469Z,20.5
2022-10-17T13:14:36.850Z,20.6
2022-10-17T13:21:24.518Z,20.4
2022-10-17T13:27:35.154Z,20.8
2022-10-17T13:29:26.343Z,20.9
2022-10-17T13:31:54.584Z,20.5
2022-10-17T13:33:45.773Z,20.4
2022-10-17T13:35:58.879Z,20
2022-10-17T13:42:24.648Z,20.2
2022-10-17T13:54:37.690Z,20.3
2022-10-17T14:08:09.915Z,20.6
2022-10-17T14:09:35.374Z,20.5
2022-10-17T14:11:26.579Z,20.7
2022-10-17T14:13:54.799Z,20.6
2022-10-17T14:15:45.990Z,21
2022-10-17T14:17:37.175Z,21.1
2022-10-17T14:24:24.867Z,21
2022-10-17T14:28:44.368Z,20.8
2022-10-17T14:32:26.691Z,20.8
2022-10-17T14:36:46.103Z,20.7
2022-10-17T14:38:37.310Z,20.7
2022-10-17T14:45:24.973Z,20.5
2022-10-17T14:51:32.408Z,20.6
2022-10-17T14:57:38.020Z,20.7
2022-10-17T15:02:34.729Z,20.4
2022-10-17T15:04:25.715Z,20.4
2022-10-17T15:08:45.135Z,20.2
2022-10-17T15:10:36.328Z,20.2
2022-10-17T15:12:27.863Z,20.3
2022-10-17T15:23:34.613Z,20.2
2022-10-17T15:25:25.807Z,20.2
2022-10-17T15:29:45.241Z,20
2022-10-17T15:31:36.446Z,19.8
2022-10-17T15:33:27.619Z,19.7
2022-10-17T15:44:34.722Z,19.7
2022-10-17T15:46:25.911Z,19.5
2022-10-17T15:48:54.159Z,19.4
2022-10-17T15:50:37.162Z,19.5
2022-10-17T15:51:14.213Z,19.4
2022-10-17T15:57:24.843Z,19.4
2022-10-17T16:01:44.284Z,19.3
2022-10-17T16:03:35.458Z,19.2
2022-10-17T16:05:26.649Z,19.2
2022-10-17T16:07:54.895Z,19.1
2022-10-17T16:11:37.270Z,19.1
2022-10-17T16:18:24.949Z,18.9
2022-10-17T16:22:44.413Z,18.6
2022-10-17T16:24:35.571Z,18.6
2022-10-17T16:26:26.747Z,18.7
2022-10-17T16:30:54.378Z,18.6
2022-10-17T16:32:45.573Z,18.7
2022-10-17T16:34:36.773Z,18.4
2022-10-17T16:41:24.431Z,18.4
2022-10-17T16:47:35.064Z,18.3
2022-10-17T16:51:46.302Z,18.3
2022-10-17T16:53:37.510Z,18.3
2022-10-17T17:00:25.263Z,18.2
2022-10-17T17:04:44.602Z,18.2
2022-10-17T17:06:35.825Z,18.1
2022-10-17T17:08:26.991Z,18.1
2022-10-17T17:14:37.591Z,18
2022-10-17T17:21:25.279Z,18
2022-10-17T17:25:44.715Z,18.1
2022-10-17T17:27:35.886Z,18
2022-10-17T17:29:27.085Z,17.9
2022-10-17T17:35:37.701Z,18
2022-10-17T17:40:34.193Z,18
2022-10-17T17:42:25.380Z,17.8
2022-10-17T17:48:35.996Z,18
2022-10-17T17:51:04.248Z,17.9
2022-10-17T17:53:24.308Z,17.9
2022-10-17T17:59:34.925Z,17.9
2022-10-17T18:01:26.208Z,18
2022-10-17T18:03:54.394Z,17.8
2022-10-17T18:07:36.740Z,17.6
2022-10-17T18:14:24.425Z,17.7
2022-10-17T18:20:35.045Z,17.6
2022-10-17T18:22:26.217Z,17.6
2022-10-17T18:24:54.483Z,17.6
2022-10-17T18:28:36.970Z,17.5
2022-10-17T18:35:24.527Z,17.5
2022-10-17T18:41:35.177Z,17.7
2022-10-17T18:43:26.332Z,17.9
2022-10-17T18:45:54.571Z,17.7
2022-10-17T18:49:36.944Z,17.6
2022-10-17T18:54:25.276Z,17.4
2022-10-17T19:02:37.270Z,17.3
2022-10-17T19:04:26.445Z,17.4
2022-10-17T19:06:54.684Z,17.4
2022-10-17T19:10:37.060Z,17.5
2022-10-17T19:17:24.739Z,17.1
2022-10-17T19:21:44.186Z,17.5
2022-10-17T19:23:35.365Z,17.5
2022-10-17T19:25:26.550Z,17.6
2022-10-17T19:27:54.849Z,17.4
2022-10-17T19:29:45.993Z,17.4
2022-10-17T19:31:37.168Z,17.4
2022-10-17T19:38:24.861Z,17.3
2022-10-17T19:42:44.290Z,17.3
2022-10-17T19:44:35.470Z,17.2
2022-10-17T19:46:26.651Z,17.2
2022-10-17T19:48:54.905Z,17
2022-10-17T19:50:46.107Z,17.3
2022-10-17T19:52:37.288Z,17.4
2022-10-17T20:03:44.399Z,17.3
2022-10-17T20:05:35.589Z,17.3
2022-10-17T20:07:26.768Z,17.2
2022-10-17T20:13:37.389Z,17
2022-10-17T20:16:34.511Z,16.9
2022-10-17T20:18:25.695Z,16.8
2022-10-17T20:22:45.129Z,16.7
2022-10-17T20:24:36.320Z,16.9
2022-10-17T20:26:42.863Z,16.7
2022-10-17T20:30:46.942Z,17
2022-10-17T20:32:41.164Z,17.1
2022-10-17T20:37:38.560Z,16.4
2022-10-17T20:39:25.806Z,16.5
2022-10-17T20:45:50.376Z,17.1
2022-10-17T20:47:43.637Z,16.9
2022-10-17T20:52:15.911Z,17
2022-10-17T20:54:44.162Z,17.2
2022-10-17T20:58:26.535Z,17
2022-10-17T21:00:54.787Z,17
2022-10-17T21:02:46.022Z,16.9
2022-10-17T21:04:52.503Z,16.6
2022-10-17T21:11:24.841Z,16.5
2022-10-17T21:15:44.292Z,16.7
2022-10-17T21:17:35.479Z,16.8
2022-10-17T21:19:26.634Z,16.7
2022-10-17T21:21:54.906Z,16.6
2022-10-17T21:25:40.527Z,16.8
2022-10-17T21:30:05.051Z,16.3
2022-10-17T21:34:24.336Z,16.5
2022-10-17T21:40:34.949Z,16.6
2022-10-17T21:42:26.144Z,16.4
2022-10-17T21:44:54.379Z,16.4
2022-10-17T21:46:45.596Z,16.4
2022-10-17T21:48:36.751Z,16.5
2022-10-17T21:53:25.056Z,16.9
2022-10-17T21:57:44.483Z,16.7
2022-10-17T21:59:35.685Z,16.8
2022-10-17T22:01:26.941Z,16.8
2022-10-17T22:07:37.474Z,16.8
2022-10-17T22:14:25.180Z,16.5
2022-10-17T22:18:44.603Z,16.4
2022-10-17T22:20:35.781Z,16.5
2022-10-17T22:22:26.970Z,16.6
2022-10-17T22:26:46.406Z,16.4
2022-10-17T22:28:37.629Z,16.3
2022-10-17T22:35:25.267Z,16.3
2022-10-17T22:39:44.712Z,16.2
2022-10-17T22:41:35.885Z,16.3
2022-10-17T22:43:27.080Z,16.3
2022-10-17T22:47:46.509Z,16.4
2022-10-17T22:49:37.701Z,16.5
2022-10-17T22:54:34.194Z,16.5
2022-10-17T22:56:25.382Z,16.5
2022-10-17T23:00:44.807Z,15.8
2022-10-17T23:04:19.012Z,16.2
2022-10-17T23:07:24.299Z,16.2
2022-10-17T23:13:34.927Z,15.9
2022-10-17T23:15:26.109Z,16.3
2022-10-17T23:17:54.419Z,16.2
2022-10-17T23:21:36.720Z,16.2
2022-10-17T23:28:24.486Z,16.1
2022-10-17T23:34:35.025Z,15.9
2022-10-17T23:36:26.255Z,15.8
2022-10-17T23:38:57.829Z,15.8
2022-10-17T23:40:45.658Z,15.9
2022-10-17T23:42:36.827Z,16
2022-10-17T23:49:24.516Z,16.2
2022-10-17T23:55:35.141Z,16.4
2022-10-17T23:57:26.330Z,16.5
